CPX411 Details

Departure: Minneapolis-St Paul International Airport (KMSP)
Arrival: Chicago/Rockford International Airport (KRFD)
Route: ZMBRO7 ODI J30 COTON RFD


Current Weather Information
KMSP 181553Z 25004KT 10SM FEW250 00/M04 A3037 RMK AO2 SLP294 T00001039
KRFD 181601Z 32005KT 10SM BKN015 03/M02 A3040 RMK AO2 T00281017